Time;durP1;ratioP1;P1;durP2;ratioP2;P2;SDS_P1;SDS_P2;PMS_P1;PMS_P2;Temp;Humidity;BMP_temperature;BMP_pressure;BME280_temperature;BME280_humidity;BME280_pressure;Samples;Min_cycle;Max_cycle;Signal;HPM_P1;HPM_P2
2022/01/12 00:01:23;;;;;;;44.13;26.60;;;-1.10;99.90;;;-1.09;76.65;103114.28;4938900;29;20185;-67
2022/01/12 00:03:51;;;;;;;57.15;27.02;;;-1.00;99.90;;;-1.05;76.84;103127.34;4938638;29;20637;-67
2022/01/12 00:06:21;;;;;;;54.40;28.77;;;-1.00;99.90;;;-1.18;77.30;103135.97;4938427;29;20276;-67
2022/01/12 00:08:50;;;;;;;50.67;28.35;;;-1.00;99.90;;;-1.27;77.07;103115.16;4938294;29;20185;-67
2022/01/12 00:11:20;;;;;;;53.22;29.70;;;-1.10;99.90;;;-1.13;77.15;103118.91;4939192;29;20655;-67
2022/01/12 00:13:51;;;;;;;42.67;25.23;;;-1.10;99.90;;;-1.28;76.88;103116.09;4939324;29;20212;-68
2022/01/12 00:16:21;;;;;;;50.22;29.05;;;-1.10;99.90;;;-1.21;77.37;103104.25;4938635;29;20199;-66
2022/01/12 00:18:49;;;;;;;56.20;27.77;;;-1.10;99.90;;;-1.25;77.29;103107.97;4938727;29;20220;-66
2022/01/12 00:21:18;;;;;;;48.90;28.60;;;-1.10;99.90;;;-1.09;76.76;103107.19;4938430;29;20193;-66
2022/01/12 00:23:48;;;;;;;54.90;28.23;;;-1.10;99.90;;;-0.98;76.73;103106.66;4938157;29;20233;-66
2022/01/12 00:26:37;;;;;;;48.15;28.33;;;-0.90;99.90;;;-1.07;76.53;103099.16;4938021;29;20249;-66
2022/01/12 00:34:45;;;;;;;52.88;27.98;;;-1.00;99.90;;;-1.26;77.63;103091.19;4937908;29;20231;-67
2022/01/12 00:37:13;;;;;;;49.60;27.88;;;-1.10;99.90;;;-1.16;77.32;103087.13;4937688;29;20185;-66
2022/01/12 00:39:43;;;;;;;51.88;30.23;;;-1.10;99.90;;;-1.06;77.82;103095.53;4937707;29;20201;-68
2022/01/12 00:42:14;;;;;;;47.20;26.33;;;-1.10;99.90;;;-1.10;76.65;103099.28;4952668;29;20216;-67
2022/01/12 00:44:45;;;;;;;44.08;29.25;;;-1.00;99.90;;;-1.13;77.68;103096.78;4937614;29;20319;-66
2022/01/12 00:47:14;;;;;;;48.50;27.35;;;-1.10;99.90;;;-0.81;77.01;103103.19;4937751;29;20192;-65
2022/01/12 00:49:42;;;;;;;53.92;30.77;;;-0.90;99.90;;;-0.92;77.17;103104.56;4937460;29;20241;-66
2022/01/12 00:52:11;;;;;;;56.72;29.92;;;-0.90;99.90;;;-1.04;77.29;103096.31;4937456;29;20196;-67
2022/01/12 00:54:39;;;;;;;55.90;30.40;;;-0.90;99.90;;;-1.05;77.51;103105.22;4937355;29;20211;-66
2022/01/12 00:57:09;;;;;;;59.50;30.92;;;-0.90;99.90;;;-0.74;76.66;103112.59;4937292;29;20169;-67
2022/01/12 00:59:37;;;;;;;55.75;27.83;;;-0.80;99.90;;;-0.87;77.39;103107.84;4952091;29;20229;-67
2022/01/12 01:02:06;;;;;;;56.08;28.05;;;-0.80;99.90;;;-0.71;76.88;103105.31;4937606;29;20232;-67
2022/01/12 01:04:35;;;;;;;54.45;26.05;;;-0.70;99.90;;;-0.64;76.78;103101.44;4935865;29;20280;-68
2022/01/12 01:07:05;;;;;;;53.72;28.60;;;-0.60;99.90;;;-0.69;77.71;103102.59;4935746;29;20216;-66
2022/01/12 01:09:36;;;;;;;55.30;30.85;;;-0.70;99.90;;;-0.63;77.15;103100.47;4937202;29;20196;-67
2022/01/12 01:12:05;;;;;;;55.45;32.58;;;-0.60;99.90;;;-0.40;76.74;103101.13;4937475;29;20195;-67
2022/01/12 01:14:46;;;;;;;53.65;29.48;;;-0.40;99.90;;;-0.62;76.82;103104.84;4951964;28;20213;-66
2022/01/12 01:25:40;;;;;;;48.63;27.33;;;-0.70;99.90;;;-0.67;77.78;103096.25;4951619;29;20292;-67
2022/01/12 01:28:10;;;;;;;56.97;28.70;;;-0.60;99.90;;;-0.60;77.69;103096.81;4937102;29;20189;-67
2022/01/12 01:30:44;;;;;;;49.03;27.88;;;-0.60;99.90;;;-0.52;77.60;103094.63;4951678;29;20197;-67
2022/01/12 01:33:16;;;;;;;52.40;31.75;;;-0.50;99.90;;;-0.72;78.55;103098.25;4936699;29;20289;-67
2022/01/12 01:35:55;;;;;;;57.40;29.30;;;-0.60;99.90;;;-0.41;76.68;103112.69;4935782;29;20193;-66
2022/01/12 01:38:25;;;;;;;54.30;27.02;;;-0.50;99.90;;;-0.69;77.96;103103.44;4936955;29;20677;-67
2022/01/12 01:40:54;;;;;;;57.72;28.52;;;-0.60;99.90;;;-0.43;77.58;103104.78;4938322;29;20280;-65
2022/01/12 01:43:38;;;;;;;50.33;27.35;;;-0.50;99.90;;;-0.37;77.36;103103.63;4936454;29;20220;-67
2022/01/12 01:54:28;;;;;;;48.78;25.60;;;-0.30;99.90;;;-0.59;78.52;103098.53;4936749;29;20228;-66
2022/01/12 01:56:56;;;;;;;46.20;26.35;;;-0.50;99.90;;;-0.50;77.72;103104.25;4935417;29;20196;-65
2022/01/12 01:59:24;;;;;;;42.55;24.60;;;-0.40;99.90;;;-0.51;77.78;103113.16;4951063;29;20196;-67
2022/01/12 02:01:54;;;;;;;50.15;26.48;;;-0.40;99.90;;;-0.38;77.82;103107.22;4935085;29;20654;-64
2022/01/12 02:04:23;;;;;;;47.75;28.60;;;-0.40;99.90;;;-0.25;77.51;103108.34;4935195;29;20221;-67
2022/01/12 02:06:54;;;;;;;46.10;25.67;;;-0.30;99.90;;;-0.35;77.30;103105.28;4951115;29;20251;-66
2022/01/12 02:09:23;;;;;;;42.03;22.90;;;-0.30;99.90;;;-0.41;77.44;103102.91;4934950;29;20703;-66
2022/01/12 02:12:03;;;;;;;43.90;25.10;;;-0.30;99.90;;;-0.44;77.76;103090.63;4951021;29;20191;-68
2022/01/12 02:14:33;;;;;;;48.13;26.38;;;-0.40;99.90;;;-0.41;77.62;103091.41;4935005;29;20219;-66
2022/01/12 02:17:10;;;;;;;47.75;25.27;;;-0.40;99.90;;;-0.41;77.70;103096.75;4936139;29;20208;-66
2022/01/12 02:19:51;;;;;;;47.88;25.40;;;-0.30;99.90;;;-0.35;77.69;103091.13;4934825;29;20203;-66
2022/01/12 02:36:22;;;;;;;53.28;25.38;;;-0.20;99.90;;;-0.43;78.25;103094.16;4936977;29;20215;-67
2022/01/12 02:41:40;;;;;;;51.45;27.73;;;-0.30;99.90;;;-0.42;78.86;103087.91;4937483;29;20291;-67
2022/01/12 02:55:15;;;;;;;67.07;29.20;;;-0.50;1.00;;;-0.53;79.20;103088.44;4964691;23;20243;-72
2022/01/12 02:57:43;;;;;;;64.43;30.42;;;-0.50;1.00;;;-0.29;78.40;103085.50;4970844;28;20579;-71
2022/01/12 03:00:16;;;;;;;61.13;28.95;;;-0.30;1.00;;;-0.26;78.18;103085.31;4971847;28;20185;-72
2022/01/12 03:02:50;;;;;;;54.35;31.30;;;-0.30;1.00;;;-0.32;78.10;103091.81;4956723;29;20239;-71
2022/01/12 03:05:44;;;;;;;59.38;30.45;;;-0.30;1.00;;;-0.21;78.43;103085.94;4955800;29;20207;-70
2022/01/12 03:08:19;;;;;;;51.60;26.55;;;-0.20;1.00;;;-0.27;78.35;103088.91;4971266;28;20267;-70
2022/01/12 03:10:49;;;;;;;64.80;30.08;;;-0.20;1.00;;;-0.44;78.43;103081.81;4956664;29;20236;-71
2022/01/12 03:13:18;;;;;;;52.92;29.42;;;-0.30;1.00;;;-0.42;78.50;103082.56;4958094;28;20184;-71
2022/01/12 03:15:48;;;;;;;52.80;26.05;;;-0.40;1.00;;;-0.46;78.61;103083.66;4972820;28;20202;-72
2022/01/12 03:18:18;;;;;;;39.92;21.88;;;-0.40;1.00;;;-0.42;78.99;103074.59;4957725;28;20303;-70
2022/01/12 03:20:48;;;;;;;51.08;23.90;;;-0.40;1.00;;;-0.51;79.28;103078.59;4957544;29;20291;-72
2022/01/12 03:23:17;;;;;;;46.65;23.13;;;-0.40;1.00;;;-0.35;79.01;103075.16;4976439;28;20652;-73
2022/01/12 03:25:49;;;;;;;47.55;25.17;;;-0.40;1.00;;;-0.42;78.16;103074.59;4973186;28;20212;-71
2022/01/12 03:28:18;;;;;;;34.47;20.92;;;-0.30;1.00;;;-0.33;78.84;103073.25;4972385;28;20220;-71
2022/01/12 03:30:54;;;;;;;37.42;18.33;;;-0.30;1.00;;;-0.26;78.52;103080.00;4956365;29;20196;-70
2022/01/12 03:33:38;;;;;;;48.28;20.98;;;-0.30;1.00;;;-0.35;78.36;103075.16;4957662;29;20188;-71
2022/01/12 03:36:24;;;;;;;47.15;23.52;;;-0.30;1.00;;;-0.68;79.44;103083.03;4956490;29;20589;-71
2022/01/12 03:38:57;;;;;;;40.25;19.98;;;-0.50;1.00;;;-0.72;79.29;103074.34;4956355;28;20311;-70
2022/01/12 03:41:29;;;;;;;38.45;22.52;;;-0.60;1.00;;;-0.73;80.32;103079.75;4958369;28;20693;-71
2022/01/12 03:44:02;;;;;;;48.05;25.80;;;-0.60;1.00;;;-0.34;79.43;103077.75;4956634;29;20271;-71
2022/01/12 03:46:35;;;;;;;53.42;24.83;;;-0.50;1.00;;;-0.15;78.64;103082.97;4959411;28;20607;-71
2022/01/12 03:49:05;;;;;;;46.28;24.80;;;-0.30;1.00;;;-0.29;78.55;103090.81;4958491;28;20302;-72
2022/01/12 03:51:33;;;;;;;47.20;24.25;;;-0.30;1.00;;;-0.16;78.26;103095.41;4975035;28;20431;-71
2022/01/12 03:54:02;;;;;;;48.40;22.52;;;-0.20;1.00;;;-0.24;78.75;103088.78;4959031;29;20252;-71
2022/01/12 03:56:32;;;;;;;50.35;22.00;;;-0.20;1.00;;;-0.28;78.45;103087.19;4974758;28;20573;-72
2022/01/12 03:59:01;;;;;;;49.42;22.80;;;-0.20;1.00;;;-0.24;78.64;103089.59;4975445;28;20226;-71
2022/01/12 04:01:29;;;;;;;42.72;19.98;;;-0.20;1.00;;;-0.36;79.07;103087.59;4975969;28;20798;-71
2022/01/12 04:04:02;;;;;;;51.42;23.58;;;-0.30;1.00;;;-0.12;78.91;103082.78;4960169;29;20211;-70
2022/01/12 04:09:38;;;;;;;50.55;25.98;;;0.00;1.00;;;-0.02;77.63;103078.72;4959343;29;20254;-70
2022/01/12 04:12:09;;;;;;;55.90;29.02;;;0.00;1.00;;;-0.22;78.31;103081.56;4958960;29;20193;-71
2022/01/12 04:14:39;;;;;;;59.83;27.92;;;-0.10;99.90;;;-0.07;78.40;103080.75;4976278;28;20188;-71
2022/01/12 04:17:07;;;;;;;61.15;28.60;;;-0.10;1.00;;;0.00;78.28;103084.84;4976683;28;20207;-71
2022/01/12 04:19:36;;;;;;;63.05;29.83;;;0.00;1.00;;;0.07;77.96;103072.91;4976932;28;20212;-71
2022/01/12 04:23:16;;;;;;;58.85;26.60;;;0.00;1.00;;;-0.19;78.40;103082.25;4976394;28;20268;-70
2022/01/12 04:24:57;;;;;;;52.05;26.65;;;-0.10;99.90;;;-0.26;79.11;103069.34;4977472;28;20302;-70
2022/01/12 04:27:28;;;;;;;54.83;27.25;;;-0.20;1.00;;;-0.28;79.59;103066.75;4961815;28;20219;-72
2022/01/12 04:29:57;;;;;;;53.45;26.65;;;-0.20;1.00;;;-0.05;78.83;103076.22;4959616;29;20635;-70
2022/01/12 04:32:26;;;;;;;63.22;28.77;;;-0.10;1.00;;;-0.23;79.32;103075.38;4961151;29;20251;-73
2022/01/12 04:34:55;;;;;;;53.78;27.70;;;-0.20;1.00;;;-0.20;79.37;103085.88;4962238;29;20199;-71
2022/01/12 04:37:24;;;;;;;64.53;28.70;;;-0.20;1.00;;;0.13;78.09;103083.22;4962287;28;20215;-70
2022/01/12 04:39:52;;;;;;;57.58;24.67;;;0.00;1.00;;;0.10;77.87;103080.72;4959730;29;20177;-71
2022/01/12 04:42:20;;;;;;;51.80;24.83;;;0.10;1.00;;;-0.05;78.55;103074.41;4957524;29;20682;-71
2022/01/12 04:44:59;;;;;;;57.90;25.35;;;0.00;1.00;;;-0.20;79.19;103077.88;4958185;29;20203;-70
2022/01/12 04:47:46;;;;;;;63.65;29.55;;;-0.10;1.00;;;-0.04;79.13;103075.25;4957925;28;20220;-71
2022/01/12 04:50:14;;;;;;;61.85;30.80;;;0.00;1.00;;;-0.13;78.87;103086.41;4974322;28;20619;-72
2022/01/12 04:52:42;;;;;;;64.70;28.85;;;-0.10;1.00;;;0.08;79.06;103082.63;4974980;28;20202;-71
2022/01/12 04:55:11;;;;;;;61.67;29.27;;;0.00;1.00;;;-0.12;78.67;103082.78;4974930;28;20263;-70
2022/01/12 04:57:40;;;;;;;60.38;26.67;;;0.00;1.00;;;-0.01;78.93;103085.78;4975277;28;20215;-71
2022/01/12 05:00:16;;;;;;;55.17;27.98;;;0.00;1.00;;;-0.18;79.14;103091.09;4958826;29;20659;-72
2022/01/12 05:08:37;;;;;;;55.28;27.55;;;0.10;1.00;;;0.13;78.21;103085.03;4959815;28;20634;-71
2022/01/12 05:13:58;;;;;;;59.60;30.27;;;-0.10;1.00;;;-0.38;79.34;103101.88;4974069;28;20192;-71
2022/01/12 05:16:28;;;;;;;54.38;26.13;;;-0.20;1.00;;;-0.23;79.57;103101.13;4958185;29;20192;-70
2022/01/12 05:18:59;;;;;;;64.85;28.30;;;-0.20;1.00;;;-0.16;79.43;103094.56;4974768;28;20216;-71
2022/01/12 05:21:28;;;;;;;51.75;25.58;;;-0.10;9.60;;;-0.05;79.98;103094.84;4958096;29;20206;-72
2022/01/12 05:24:00;;;;;;;60.38;28.95;;;-0.10;36.00;;;-0.16;79.28;103083.91;4974026;28;20287;-71
2022/01/12 05:26:28;;;;;;;53.35;25.65;;;-0.10;1.00;;;0.01;79.13;103083.88;4958750;28;20698;-70
2022/01/12 05:28:57;;;;;;;49.40;24.85;;;0.00;1.00;;;-0.10;79.04;103091.56;4974434;28;20299;-73
2022/01/12 05:31:27;;;;;;;53.28;26.67;;;0.00;1.00;;;-0.05;78.62;103089.53;4958191;29;20192;-71
2022/01/12 05:34:00;;;;;;;47.17;23.92;;;0.00;1.00;;;-0.05;78.74;103078.88;4958094;29;20327;-70
2022/01/12 05:36:32;;;;;;;55.70;23.92;;;0.00;1.00;;;-0.17;79.14;103083.03;4973578;28;20180;-70
2022/01/12 05:39:03;;;;;;;49.90;26.58;;;0.00;1.00;;;-0.30;79.91;103078.44;4957603;28;20566;-70
2022/01/12 05:41:31;;;;;;;55.58;26.60;;;-0.10;1.00;;;0.09;78.67;103079.03;4956937;29;20188;-71
2022/01/12 05:44:05;;;;;;;60.13;25.08;;;0.00;1.00;;;0.08;79.28;103069.31;4972893;28;20191;-72
2022/01/12 05:46:40;;;;;;;53.63;25.90;;;0.10;1.00;;;0.03;79.09;103070.47;4957189;29;20726;-71
2022/01/12 05:52:04;;;;;;;48.08;23.20;;;0.00;1.00;;;-0.31;79.66;103058.94;4956282;29;20655;-70
2022/01/12 05:54:33;;;;;;;57.30;26.75;;;-0.10;1.00;;;-0.43;79.84;103048.91;4956057;29;20202;-71
2022/01/12 05:57:02;;;;;;;47.83;24.35;;;-0.20;1.00;;;-0.37;79.99;103039.75;4972064;28;20588;-71
2022/01/12 05:59:30;;;;;;;57.33;27.63;;;-0.20;1.00;;;-0.41;80.49;103049.72;4956118;29;20239;-71
2022/01/12 06:02:05;;;;;;;44.65;24.38;;;-0.30;11.40;;;-0.58;80.34;103057.72;4972110;28;20195;-72
2022/01/12 06:04:35;;;;;;;51.33;23.90;;;-0.40;41.10;;;-0.57;80.62;103057.63;4952787;29;20588;-72
2022/01/12 06:07:04;;;;;;;51.05;25.45;;;-0.40;99.90;;;-0.56;81.02;103050.50;4952540;28;20212;-71
2022/01/12 06:09:33;;;;;;;53.40;26.75;;;-0.40;99.90;;;-0.63;81.21;103043.78;4957193;28;20609;-71
2022/01/12 06:12:02;;;;;;;56.67;26.40;;;-0.40;1.00;;;-0.55;80.93;103037.13;4956459;29;20224;-71
2022/01/12 06:14:30;;;;;;;63.10;24.90;;;-0.40;1.00;;;-0.66;81.44;103047.44;4955231;29;20207;-71
2022/01/12 06:17:00;;;;;;;58.13;25.80;;;-0.50;1.00;;;-0.74;81.80;103046.13;4988451;28;20194;-70
2022/01/12 06:19:30;;;;;;;60.80;26.55;;;-0.50;1.00;;;-0.60;81.19;103056.91;4939863;29;20197;-72
2022/01/12 06:22:11;;;;;;;50.83;25.10;;;-0.50;99.90;;;-0.60;81.38;103055.13;4937267;29;20201;-72
2022/01/12 06:24:39;;;;;;;46.35;23.95;;;-0.50;1.00;;;-0.66;81.62;103054.56;4936872;29;20499;-72
2022/01/12 06:27:10;;;;;;;51.20;25.17;;;-0.50;93.50;;;-0.67;81.88;103052.81;4936177;29;20217;-69
2022/01/12 06:29:44;;;;;;;50.75;24.63;;;-0.50;99.90;;;-0.68;81.32;103052.00;4936374;29;20176;-69
2022/01/12 06:32:13;;;;;;;54.72;24.48;;;-0.50;1.00;;;-0.78;81.81;103055.19;4936462;29;20192;-70
2022/01/12 06:34:45;;;;;;;50.85;24.67;;;-0.60;1.00;;;-0.79;82.05;103061.44;4936921;29;20199;-72
2022/01/12 06:37:15;;;;;;;49.72;23.95;;;-0.60;1.00;;;-0.81;82.46;103066.81;4936776;29;20264;-71
2022/01/12 06:39:43;;;;;;;47.47;25.50;;;-0.60;42.90;;;-0.66;82.21;103071.38;4936888;29;20661;-72
2022/01/12 06:42:12;;;;;;;52.60;22.88;;;-0.60;1.00;;;-0.54;81.67;103072.56;4937921;29;20185;-72
2022/01/12 06:44:41;;;;;;;49.72;23.17;;;-0.50;99.90;;;-0.63;81.63;103070.38;4936666;29;20203;-72
2022/01/12 06:47:09;;;;;;;36.03;22.23;;;-0.50;99.90;;;-0.51;81.79;103059.97;4937739;29;20565;-71
2022/01/12 06:49:38;;;;;;;52.28;22.25;;;-0.40;1.00;;;-0.43;81.23;103067.53;4937958;29;20185;-71
2022/01/12 06:52:09;;;;;;;52.55;25.35;;;-0.40;1.00;;;-0.32;80.73;103069.66;4936518;29;20244;-72
2022/01/12 06:54:37;;;;;;;46.80;20.67;;;-0.30;1.00;;;-0.31;80.58;103060.75;4937654;29;20180;-70
2022/01/12 06:57:06;;;;;;;52.22;22.65;;;-0.20;1.00;;;-0.33;80.86;103073.25;4941249;29;20185;-71
2022/01/12 06:59:35;;;;;;;45.45;23.20;;;-0.30;99.90;;;-0.27;81.21;103080.94;4943124;29;20197;-70
2022/01/12 07:02:04;;;;;;;37.15;21.20;;;-0.20;99.90;;;-0.24;80.49;103083.44;4946080;29;20258;-72
2022/01/12 07:04:36;;;;;;;50.15;24.27;;;-0.20;99.90;;;-0.36;80.84;103086.72;4946854;29;20181;-69
2022/01/12 07:07:09;;;;;;;43.88;21.38;;;-0.20;91.50;;;-0.21;80.56;103084.16;4949588;29;20223;-71
2022/01/12 07:09:39;;;;;;;55.55;26.02;;;-0.20;22.40;;;-0.23;80.83;103085.16;4940909;29;20570;-71
2022/01/12 07:12:20;;;;;;;45.10;21.40;;;-0.10;1.00;;;-0.10;80.33;103091.56;4937172;29;20224;-72
2022/01/12 07:14:51;;;;;;;54.15;28.95;;;0.00;1.00;;;-0.05;80.27;103087.72;4938176;29;20189;-72
2022/01/12 07:17:20;;;;;;;44.58;21.85;;;0.00;1.00;;;-0.09;79.92;103082.63;4937607;29;20204;-71
2022/01/12 07:19:49;;;;;;;45.67;23.10;;;0.00;99.90;;;0.10;80.14;103083.38;4937660;29;20204;-72
2022/01/12 07:22:19;;;;;;;51.78;26.52;;;0.10;99.90;;;0.12;79.77;103086.84;4941936;29;20240;-70
2022/01/12 07:24:47;;;;;;;43.53;23.35;;;0.20;99.90;;;0.15;79.81;103091.97;4943011;29;20185;-69
2022/01/12 07:27:21;;;;;;;46.90;24.58;;;0.20;99.90;;;0.10;80.30;103094.03;4942451;29;20201;-71
2022/01/12 07:29:49;;;;;;;48.45;24.70;;;0.20;1.00;;;0.21;79.73;103089.00;4941084;29;20224;-70
2022/01/12 07:32:18;;;;;;;61.30;27.20;;;0.20;1.00;;;0.23;78.82;103084.47;4938274;29;20181;-70
2022/01/12 07:34:46;;;;;;;59.63;26.38;;;0.30;1.00;;;0.32;79.48;103083.97;4938560;29;20188;-71
2022/01/12 07:37:14;;;;;;;51.67;24.23;;;0.30;1.00;;;0.36;79.35;103082.00;4939347;29;20659;-70
2022/01/12 07:39:46;;;;;;;52.65;23.20;;;0.30;99.90;;;0.49;78.69;103087.50;4939084;29;20306;-71
2022/01/12 07:42:15;;;;;;;54.00;27.17;;;0.50;99.90;;;0.55;78.78;103092.50;4939324;29;20177;-71
2022/01/12 07:44:44;;;;;;;52.17;23.77;;;0.50;1.00;;;0.44;78.82;103093.94;4937280;29;20327;-71
2022/01/12 07:47:12;;;;;;;74.05;29.73;;;0.50;99.90;;;0.60;78.64;103095.78;4938287;29;20578;-70
2022/01/12 07:49:41;;;;;;;59.75;24.42;;;0.60;99.90;;;0.62;78.31;103100.09;4937590;29;20193;-70
2022/01/12 07:52:10;;;;;;;56.20;25.77;;;0.60;1.00;;;0.86;77.95;103100.53;4937375;29;20227;-70
2022/01/12 07:54:38;;;;;;;51.47;25.67;;;0.70;1.00;;;0.84;77.58;103103.28;4937367;29;20192;-70
2022/01/12 07:57:08;;;;;;;51.95;28.13;;;0.80;99.90;;;1.00;77.55;103108.63;4937099;29;20193;-70
2022/01/12 07:59:36;;;;;;;62.00;30.30;;;0.90;99.90;;;1.25;76.63;103106.28;4938241;29;20165;-70
2022/01/12 08:02:05;;;;;;;50.17;26.63;;;1.10;99.90;;;1.27;76.67;103104.34;4937969;29;20653;-73
2022/01/12 08:04:34;;;;;;;59.17;28.85;;;1.20;1.00;;;1.38;76.59;103103.75;4940073;29;20546;-74
2022/01/12 08:07:04;;;;;;;49.85;26.70;;;1.20;1.00;;;1.30;76.17;103108.69;4939036;29;20213;-74
2022/01/12 08:09:32;;;;;;;51.20;28.40;;;1.30;99.90;;;1.29;77.14;103126.47;4940527;29;20177;-73
2022/01/12 08:12:01;;;;;;;54.17;28.52;;;1.20;99.90;;;1.48;76.58;103128.09;4942100;29;20276;-73
2022/01/12 08:14:31;;;;;;;54.00;25.52;;;1.30;1.00;;;1.59;75.79;103139.00;4942153;29;20235;-72
2022/01/12 08:17:00;;;;;;;50.63;26.13;;;1.40;99.90;;;1.67;75.34;103136.75;4940086;29;20181;-75
2022/01/12 08:19:29;;;;;;;50.35;27.08;;;1.60;99.90;;;1.57;75.62;103122.22;4938106;29;20662;-73
2022/01/12 08:21:58;;;;;;;49.67;26.98;;;1.50;1.00;;;1.53;75.55;103124.19;4939078;29;20699;-75
2022/01/12 08:24:26;;;;;;;49.00;23.58;;;1.50;1.00;;;1.67;75.34;103126.06;4938038;29;20223;-73
2022/01/12 08:27:07;;;;;;;53.63;29.08;;;1.60;1.00;;;1.85;74.79;103124.97;4938553;29;20218;-71
2022/01/12 08:29:37;;;;;;;48.42;23.25;;;1.70;1.00;;;1.85;74.92;103124.09;4938141;29;20185;-71
2022/01/12 08:32:07;;;;;;;48.03;25.25;;;1.80;1.00;;;2.03;74.51;103129.19;4937551;29;20199;-71
2022/01/12 08:34:35;;;;;;;44.78;23.90;;;1.90;1.00;;;1.95;74.36;103130.59;4938057;29;20193;-72
2022/01/12 08:37:05;;;;;;;44.97;23.63;;;2.00;99.90;;;2.13;73.94;103138.38;4944668;28;20589;-71
2022/01/12 08:39:34;;;;;;;53.95;26.15;;;2.00;99.90;;;2.09;74.30;103131.50;4957949;29;20489;-74
2022/01/12 08:42:02;;;;;;;51.75;26.00;;;2.00;99.90;;;2.10;74.17;103143.91;4956216;29;20195;-71
2022/01/12 08:44:35;;;;;;;46.38;23.73;;;2.10;99.90;;;2.08;74.01;103140.44;4958149;28;20227;-72
2022/01/12 08:47:06;;;;;;;56.88;26.20;;;2.10;99.90;;;2.07;74.17;103146.78;4958577;28;20218;-72
2022/01/12 08:49:35;;;;;;;54.25;26.42;;;2.10;99.90;;;2.07;73.98;103140.56;4957853;28;20202;-72
2022/01/12 08:52:06;;;;;;;53.15;26.15;;;2.10;99.90;;;1.90;74.34;103141.56;4957709;28;20199;-72
2022/01/12 08:54:34;;;;;;;53.80;24.73;;;2.00;99.90;;;2.06;74.39;103147.72;4958408;28;20204;-71
2022/01/12 08:57:04;;;;;;;47.67;24.58;;;2.00;99.90;;;1.99;74.77;103137.47;4956992;29;20188;-73
2022/01/12 08:59:32;;;;;;;51.00;28.13;;;2.00;99.90;;;2.07;74.73;103145.91;4955743;29;20168;-72
2022/01/12 09:02:01;;;;;;;54.78;27.25;;;2.00;99.90;;;2.19;74.59;103135.31;4957477;28;20195;-73
2022/01/12 09:04:31;;;;;;;57.35;27.65;;;2.10;99.90;;;2.18;74.36;103144.28;4955418;29;20203;-72
2022/01/12 09:07:00;;;;;;;52.47;27.95;;;2.10;99.90;;;2.15;74.89;103149.84;4957776;29;20259;-72
2022/01/12 09:09:30;;;;;;;60.03;26.10;;;2.10;99.90;;;2.17;74.72;103147.06;4954267;28;20228;-72
2022/01/12 09:11:59;;;;;;;49.15;25.63;;;2.10;99.90;;;2.20;74.61;103141.53;4955901;28;20310;-70
2022/01/12 09:14:29;;;;;;;56.05;26.35;;;2.20;99.90;;;2.26;75.09;103145.66;4955133;29;20208;-71
2022/01/12 09:17:00;;;;;;;54.10;27.60;;;2.20;99.90;;;2.22;74.69;103144.97;4955803;29;20542;-73
2022/01/12 09:19:30;;;;;;;59.40;27.90;;;2.20;99.90;;;2.25;75.07;103143.94;4955864;28;20180;-72
2022/01/12 09:21:59;;;;;;;51.70;24.65;;;2.20;99.90;;;2.29;74.77;103151.66;4957251;28;20191;-72
2022/01/12 09:24:28;;;;;;;54.92;26.23;;;2.30;99.90;;;2.21;75.03;103147.75;4965916;28;20181;-71
2022/01/12 09:27:03;;;;;;;50.05;24.63;;;2.20;99.90;;;2.31;75.40;103140.88;4972898;29;20204;-74
2022/01/12 09:29:31;;;;;;;55.17;27.10;;;2.30;99.90;;;2.34;75.22;103143.34;4968553;29;20227;-73
2022/01/12 09:32:01;;;;;;;54.85;26.65;;;2.30;99.90;;;2.36;75.42;103136.13;4967862;29;20264;-72
2022/01/12 09:34:31;;;;;;;60.13;25.88;;;2.30;99.90;;;2.48;75.31;103135.34;4969024;28;20541;-71
2022/01/12 09:37:00;;;;;;;51.03;25.83;;;2.40;99.90;;;2.49;75.49;103129.06;4975765;28;20244;-71
2022/01/12 09:39:29;;;;;;;53.70;26.95;;;2.40;1.00;;;2.44;75.97;103133.81;4966095;28;20537;-71
2022/01/12 09:41:59;;;;;;;53.95;26.25;;;2.40;1.00;;;2.58;76.03;103121.31;4961088;29;20283;-72
2022/01/12 09:44:32;;;;;;;51.20;27.40;;;2.50;1.00;;;2.62;76.11;103130.00;4957400;28;20683;-75
2022/01/12 09:47:04;;;;;;;51.20;27.02;;;2.60;1.00;;;2.70;75.87;103134.88;4964853;29;20253;-74
2022/01/12 09:49:34;;;;;;;50.28;23.17;;;2.60;1.00;;;2.77;75.69;103131.69;4966108;29;20176;-72
2022/01/12 09:52:04;;;;;;;59.80;28.08;;;2.70;1.00;;;2.56;76.23;103133.06;4964048;29;20192;-73
2022/01/12 09:54:33;;;;;;;46.88;23.73;;;2.60;1.00;;;2.51;76.61;103119.13;4963679;28;20257;-73
2022/01/12 09:57:03;;;;;;;52.88;24.30;;;2.50;1.00;;;2.67;76.34;103129.69;4958198;29;20648;-74
2022/01/12 09:59:33;;;;;;;47.28;24.00;;;2.60;1.00;;;2.76;76.38;103119.28;4957630;29;20227;-70
2022/01/12 10:02:01;;;;;;;49.97;25.75;;;2.70;1.00;;;2.82;76.23;103113.53;4956856;28;20196;-73
2022/01/12 10:04:33;;;;;;;51.70;25.20;;;2.70;1.00;;;2.95;75.98;103111.78;4957658;29;20257;-71
2022/01/12 10:07:03;;;;;;;40.38;24.63;;;2.80;1.00;;;3.13;76.00;103101.75;4955664;29;20226;-71
2022/01/12 10:09:35;;;;;;;46.33;23.92;;;3.00;1.00;;;3.25;75.49;103111.63;4956211;29;20196;-73
2022/01/12 10:12:11;;;;;;;55.28;24.05;;;3.00;1.00;;;3.23;75.50;103107.34;4956973;29;20283;-73
2022/01/12 10:14:43;;;;;;;49.45;23.40;;;3.10;1.00;;;3.38;75.50;103109.00;4954911;29;20223;-73
2022/01/12 10:17:13;;;;;;;42.40;22.63;;;3.20;1.00;;;3.40;75.22;103107.94;4955846;28;20624;-72
2022/01/12 10:19:43;;;;;;;41.10;23.50;;;3.30;1.00;;;3.26;75.90;103101.78;4955477;28;20279;-74
2022/01/12 10:22:15;;;;;;;48.65;23.95;;;3.20;1.00;;;3.35;75.31;103102.03;4954870;28;20188;-72
2022/01/12 10:24:46;;;;;;;44.88;22.85;;;3.30;99.90;;;3.19;75.20;103097.81;4957085;29;20184;-72
2022/01/12 10:27:18;;;;;;;38.90;22.02;;;3.20;99.90;;;3.38;75.17;103095.63;4955698;28;20177;-72
2022/01/12 10:29:58;;;;;;;43.90;23.20;;;3.30;99.90;;;3.27;75.69;103098.16;4955510;29;20208;-70
2022/01/12 10:32:26;;;;;;;42.58;21.80;;;3.30;99.90;;;3.34;75.55;103089.59;4955345;29;20230;-70
2022/01/12 10:34:59;;;;;;;49.67;23.60;;;3.30;1.00;;;3.52;75.29;103097.38;4954784;29;20180;-74
2022/01/12 10:37:28;;;;;;;47.08;25.20;;;3.40;1.00;;;3.65;74.81;103101.78;4954366;29;20615;-72
2022/01/12 10:39:58;;;;;;;41.10;21.75;;;3.50;99.90;;;3.77;74.57;103094.75;4954782;29;20176;-72
2022/01/12 10:42:29;;;;;;;43.05;22.27;;;3.60;99.90;;;3.98;74.15;103092.41;4955342;28;20851;-72
2022/01/12 10:45:02;;;;;;;40.40;21.50;;;3.80;99.90;;;3.78;73.50;103094.63;4955413;28;20176;-71
2022/01/12 10:47:33;;;;;;;37.53;21.85;;;3.70;99.90;;;3.83;74.05;103087.16;4955332;29;20228;-71
2022/01/12 10:50:10;;;;;;;41.42;23.60;;;3.70;99.90;;;3.83;73.05;103087.16;4957040;29;20191;-73
2022/01/12 10:52:50;;;;;;;45.53;23.92;;;3.80;98.40;;;3.90;74.15;103088.44;4957002;28;20210;-73
2022/01/12 10:55:21;;;;;;;45.65;22.15;;;3.80;99.90;;;3.89;73.87;103097.44;4959450;28;20287;-73
2022/01/12 10:57:49;;;;;;;38.08;20.88;;;3.80;99.90;;;3.93;73.81;103088.22;4960284;28;20207;-72
2022/01/12 11:00:22;;;;;;;36.15;21.10;;;3.80;99.90;;;3.90;73.58;103095.63;4959281;29;20266;-71
2022/01/12 11:02:56;;;;;;;36.83;21.67;;;3.80;99.90;;;3.73;74.27;103096.75;4959465;28;20263;-75
2022/01/12 11:05:30;;;;;;;42.90;23.63;;;3.70;99.90;;;3.78;74.00;103100.00;4959514;28;20180;-74
2022/01/12 11:07:58;;;;;;;33.85;21.13;;;3.70;99.90;;;3.62;74.00;103098.47;4959309;28;20239;-74
2022/01/12 11:10:27;;;;;;;49.13;24.70;;;3.70;98.00;;;3.53;74.31;103104.44;4958791;29;20176;-74
2022/01/12 11:12:55;;;;;;;38.67;23.95;;;3.50;41.60;;;3.68;74.10;103111.47;4958979;29;20556;-73
2022/01/12 11:15:24;;;;;;;42.63;21.85;;;3.50;99.90;;;3.81;74.03;103110.50;4958959;29;20272;-73
2022/01/12 11:17:54;;;;;;;41.53;24.95;;;3.60;99.90;;;3.84;73.54;103099.56;4958955;28;20207;-72
2022/01/12 11:20:30;;;;;;;38.35;21.67;;;3.70;36.70;;;3.55;74.26;103090.00;4959361;28;20180;-72
2022/01/12 11:23:04;;;;;;;41.53;22.33;;;3.60;9.70;;;3.71;74.23;103087.13;4959144;29;20519;-73
2022/01/12 11:25:36;;;;;;;39.20;21.10;;;3.60;99.90;;;3.56;74.80;103091.72;4959160;29;20186;-73
2022/01/12 11:28:12;;;;;;;44.30;26.17;;;3.60;99.90;;;3.49;75.11;103085.03;4958708;29;20715;-72